Time;durP1;ratioP1;P1;durP2;ratioP2;P2;SDS_P1;SDS_P2;PMS_P1;PMS_P2;Temp;Humidity;BMP_temperature;BMP_pressure;BME280_temperature;BME280_humidity;BME280_pressure;Samples;Min_cycle;Max_cycle;Signal;HPM_P1;HPM_P2
2023/06/17 00:00:24;;;;;;;6.57;3.55;;;;;;;24.49;45.63;96305.97;5033228;28;20033;-27
2023/06/17 00:02:50;;;;;;;3.83;3.25;;;;;;;24.57;45.30;96306.91;5033733;28;20067;-28
2023/06/17 00:05:15;;;;;;;3.92;3.17;;;;;;;24.54;45.70;96290.56;5033387;28;20028;-27
2023/06/17 00:07:41;;;;;;;4.18;3.55;;;;;;;24.56;45.45;96294.31;5033431;28;20025;-26
2023/06/17 00:10:07;;;;;;;4.57;3.38;;;;;;;24.57;45.46;96290.28;5040514;28;20017;-27
2023/06/17 00:12:33;;;;;;;3.85;3.20;;;;;;;24.42;45.71;96301.03;5033105;28;20403;-26
2023/06/17 00:15:02;;;;;;;4.70;3.65;;;;;;;24.49;46.00;96303.22;5033627;28;20021;-27
2023/06/17 00:17:32;;;;;;;4.72;3.10;;;;;;;24.35;46.02;96298.88;5033246;28;20067;-27
2023/06/17 00:20:00;;;;;;;5.45;3.40;;;;;;;24.38;46.23;96302.59;5033271;28;20116;-26
2023/06/17 00:22:29;;;;;;;5.88;3.58;;;;;;;24.53;45.81;96292.59;5033076;28;20018;-27
2023/06/17 00:24:56;;;;;;;4.85;3.80;;;;;;;24.41;45.87;96290.47;5033083;28;20044;-27
2023/06/17 00:27:21;;;;;;;7.05;4.03;;;;;;;24.49;45.97;96300.44;5033299;28;20029;-27
2023/06/17 00:29:47;;;;;;;5.07;3.85;;;;;;;24.60;45.82;96291.97;5033167;28;20028;-27
2023/06/17 00:32:12;;;;;;;4.60;3.60;;;;;;;24.46;46.18;96300.75;5033562;28;20418;-26
2023/06/17 00:34:37;;;;;;;4.57;3.35;;;;;;;24.54;45.95;96301.66;5033617;28;20026;-28
2023/06/17 00:37:04;;;;;;;6.05;3.78;;;;;;;24.50;46.06;96296.41;5046045;28;20087;-27
2023/06/17 00:39:29;;;;;;;5.03;3.60;;;;;;;24.56;46.04;96291.53;5032897;28;20037;-27
2023/06/17 00:41:57;;;;;;;6.13;3.25;;;;;;;24.46;45.89;96295.97;5032951;28;20014;-27
2023/06/17 00:44:22;;;;;;;5.10;3.40;;;;;;;24.47;46.16;96291.91;5033140;28;20017;-27
2023/06/17 00:46:50;;;;;;;4.50;3.75;;;;;;;24.52;46.16;96288.31;5039252;28;20048;-27
2023/06/17 00:49:17;;;;;;;5.35;3.50;;;;;;;24.52;46.13;96287.56;5032917;28;20017;-27
2023/06/17 00:51:43;;;;;;;4.05;3.40;;;;;;;24.55;46.32;96289.28;5033157;28;20060;-27
2023/06/17 00:54:12;;;;;;;13.57;4.53;;;;;;;24.41;46.79;96296.00;5033132;28;20021;-27
2023/06/17 00:56:37;;;;;;;5.50;3.90;;;;;;;24.29;46.76;96287.06;5032886;28;20078;-28
2023/06/17 00:59:03;;;;;;;7.07;3.78;;;;;;;24.42;46.18;96292.72;5032799;28;20022;-27
2023/06/17 01:01:29;;;;;;;5.40;4.00;;;;;;;24.27;46.66;96295.16;5043307;28;20108;-27
2023/06/17 01:03:59;;;;;;;7.53;4.53;;;;;;;24.43;46.77;96294.22;5036676;28;21376;-27
2023/06/17 01:06:39;;;;;;;4.15;3.40;;;;;;;24.38;46.81;96297.78;5036707;28;20017;-27
2023/06/17 01:09:09;;;;;;;5.80;3.92;;;;;;;24.30;46.83;96292.09;5036905;28;20042;-27
2023/06/17 01:11:38;;;;;;;4.93;3.58;;;;;;;24.31;47.07;96290.84;5036047;28;20120;-27
2023/06/17 01:14:05;;;;;;;4.07;3.67;;;;;;;24.48;46.71;96287.84;5036300;28;20070;-27
2023/06/17 01:16:34;;;;;;;5.55;3.90;;;;;;;24.53;46.57;96283.50;5036331;28;20025;-28
2023/06/17 01:19:00;;;;;;;3.88;3.38;;;;;;;24.38;46.90;96294.28;5036375;28;20083;-27
2023/06/17 01:21:28;;;;;;;4.85;3.70;;;;;;;24.41;46.99;96290.47;5044683;28;20025;-27
2023/06/17 01:23:58;;;;;;;4.20;3.60;;;;;;;24.44;46.72;96292.19;5044830;28;20026;-26
2023/06/17 01:26:24;;;;;;;4.78;3.70;;;;;;;24.39;46.91;96290.97;5043700;28;20167;-28
2023/06/17 01:28:49;;;;;;;6.55;3.92;;;;;;;24.31;47.06;96287.31;5036061;28;20057;-26
2023/06/17 01:31:18;;;;;;;3.95;3.55;;;;;;;24.45;46.73;96288.91;5036078;28;20092;-26
2023/06/17 01:33:46;;;;;;;4.90;3.80;;;;;;;24.28;47.09;96296.66;5043105;28;20021;-27
2023/06/17 01:36:22;;;;;;;6.32;3.80;;;;;;;24.32;47.04;96291.59;5036281;28;20024;-27
2023/06/17 01:38:51;;;;;;;4.70;4.10;;;;;;;24.41;47.02;96288.44;5035688;28;20382;-27
2023/06/17 01:41:27;;;;;;;4.50;3.60;;;;;;;24.25;47.48;96292.91;5035699;28;20044;-27
2023/06/17 01:43:56;;;;;;;5.82;3.72;;;;;;;24.24;47.11;96285.84;5035461;28;20055;-28
2023/06/17 01:46:24;;;;;;;5.10;3.58;;;;;;;24.28;47.21;96294.63;5036464;28;20017;-27
2023/06/17 01:48:52;;;;;;;5.80;4.00;;;;;;;24.28;47.14;96288.34;5036027;28;20105;-27
2023/06/17 01:51:19;;;;;;;6.28;4.32;;;;;;;24.28;47.16;96291.13;5035634;28;20048;-26
2023/06/17 01:53:45;;;;;;;4.72;3.53;;;;;;;24.02;47.45;96288.09;5036006;28;20112;-27
2023/06/17 01:56:11;;;;;;;4.20;3.80;;;;;;;24.19;47.33;96292.19;5035384;28;20104;-27
2023/06/17 01:58:36;;;;;;;5.03;3.90;;;;;;;24.25;47.24;96289.38;5035505;28;20066;-27
2023/06/17 02:01:01;;;;;;;8.68;4.07;;;;;;;24.32;47.19;96281.25;5035306;28;20538;-26
2023/06/17 02:03:27;;;;;;;5.93;4.03;;;;;;;24.20;47.45;96284.63;5035363;28;20025;-27
2023/06/17 02:05:52;;;;;;;5.70;3.70;;;;;;;24.22;47.39;96279.31;5035478;28;20463;-27
2023/06/17 02:08:18;;;;;;;5.22;3.80;;;;;;;24.19;47.43;96285.91;5035132;28;20028;-27
2023/06/17 02:10:43;;;;;;;5.15;4.38;;;;;;;24.22;47.20;96274.56;5035266;28;20021;-27
2023/06/17 02:13:08;;;;;;;5.00;3.50;;;;;;;24.00;47.68;96286.59;5041977;28;20018;-27
2023/06/17 02:15:34;;;;;;;4.38;3.80;;;;;;;24.10;47.71;96280.72;5035105;28;20026;-27
2023/06/17 02:18:00;;;;;;;6.43;4.50;;;;;;;24.16;47.53;96278.63;5035139;28;20025;-27
2023/06/17 02:20:26;;;;;;;4.93;3.80;;;;;;;24.28;46.96;96278.00;5034991;28;20367;-26
2023/06/17 02:22:51;;;;;;;5.70;3.90;;;;;;;24.32;47.49;96291.59;5035185;28;20028;-27
2023/06/17 02:25:17;;;;;;;5.70;4.25;;;;;;;24.17;47.50;96282.91;5042228;28;20103;-27
2023/06/17 02:27:42;;;;;;;5.63;3.75;;;;;;;24.31;46.96;96290.09;5035178;28;20048;-27
2023/06/17 02:30:10;;;;;;;4.88;3.70;;;;;;;24.34;47.22;96289.78;5035118;28;20025;-27
2023/06/17 02:32:35;;;;;;;3.85;3.45;;;;;;;24.25;46.86;96292.16;5034827;28;20044;-27
2023/06/17 02:35:02;;;;;;;4.40;3.63;;;;;;;24.19;47.50;96294.97;5034794;28;20491;-28
2023/06/17 02:37:28;;;;;;;4.53;3.40;;;;;;;24.20;47.43;96298.50;5034789;28;20021;-29
2023/06/17 02:39:54;;;;;;;6.15;3.30;;;;;;;24.13;48.29;96297.03;5034640;28;20049;-26
2023/06/17 02:42:20;;;;;;;4.28;3.65;;;;;;;24.04;48.35;96302.94;5034888;28;20014;-26
2023/06/17 02:44:45;;;;;;;5.38;3.95;;;;;;;24.03;48.23;96306.22;5034345;28;20039;-27
2023/06/17 02:47:11;;;;;;;3.97;3.58;;;;;;;24.04;48.51;96302.19;5040063;28;20372;-26
2023/06/17 02:49:36;;;;;;;5.07;4.03;;;;;;;24.17;48.38;96313.38;5034697;28;20533;-27
2023/06/17 02:52:03;;;;;;;4.93;3.85;;;;;;;24.03;49.00;96315.28;5041347;28;20030;-27
2023/06/17 02:54:28;;;;;;;6.07;4.10;;;;;;;23.97;49.27;96311.81;5034746;28;20033;-27
2023/06/17 02:56:54;;;;;;;5.03;3.92;;;;;;;23.92;49.49;96298.78;5034241;28;20035;-26
2023/06/17 02:59:22;;;;;;;3.80;3.30;;;;;;;23.89;49.88;96299.78;5034492;28;20079;-27
2023/06/17 03:01:48;;;;;;;4.40;3.95;;;;;;;23.89;49.99;96295.00;5034495;28;20027;-27
2023/06/17 03:04:13;;;;;;;5.05;3.92;;;;;;;24.03;49.57;96297.91;5034117;28;20096;-27
2023/06/17 03:06:41;;;;;;;5.20;3.80;;;;;;;24.01;49.47;96295.66;5042448;28;20066;-27
2023/06/17 03:09:08;;;;;;;4.53;3.75;;;;;;;23.84;50.11;96290.28;5041362;28;20017;-27
2023/06/17 03:11:33;;;;;;;5.13;3.97;;;;;;;23.94;49.91;96294.22;5034300;28;20032;-27
2023/06/17 03:13:59;;;;;;;5.35;3.88;;;;;;;24.05;49.42;96296.13;5034223;28;20025;-27
2023/06/17 03:16:24;;;;;;;4.97;3.72;;;;;;;23.83;49.56;96299.88;5040057;28;20037;-27
2023/06/17 03:18:51;;;;;;;5.35;3.78;;;;;;;24.08;49.06;96297.88;5033682;28;20104;-27
2023/06/17 03:21:16;;;;;;;4.57;4.10;;;;;;;23.92;49.12;96299.53;5033714;28;20013;-26
2023/06/17 03:23:42;;;;;;;5.55;4.30;;;;;;;23.92;48.47;96298.78;5034222;28;20378;-27
2023/06/17 03:26:09;;;;;;;4.10;3.70;;;;;;;24.03;48.24;96298.66;5033038;28;20100;-27
2023/06/17 03:28:35;;;;;;;5.47;3.92;;;;;;;24.06;48.36;96296.88;5034545;28;20489;-29
2023/06/17 03:31:02;;;;;;;5.32;3.90;;;;;;;24.05;48.08;96306.44;5033993;28;20025;-27
2023/06/17 03:33:28;;;;;;;5.78;3.97;;;;;;;23.82;48.21;96303.16;5033899;28;20029;-26
2023/06/17 03:35:53;;;;;;;6.63;3.90;;;;;;;23.93;47.75;96308.59;5033724;28;20029;-27
2023/06/17 03:38:19;;;;;;;4.13;3.60;;;;;;;24.01;47.61;96301.19;5033479;28;20013;-27
2023/06/17 03:40:45;;;;;;;5.00;3.53;;;;;;;23.81;47.93;96299.63;5033845;28;20037;-27
2023/06/17 03:43:11;;;;;;;4.13;3.10;;;;;;;23.78;47.60;96303.44;5033999;28;20471;-27
2023/06/17 03:45:36;;;;;;;4.47;3.70;;;;;;;23.76;47.44;96307.97;5033860;28;20115;-27
2023/06/17 03:48:02;;;;;;;5.28;3.55;;;;;;;23.61;47.00;96308.38;5033686;28;20017;-27
2023/06/17 03:50:28;;;;;;;5.63;3.53;;;;;;;23.87;46.23;96297.53;5033750;28;20017;-27
2023/06/17 03:52:53;;;;;;;5.00;3.45;;;;;;;23.71;46.52;96303.25;5033479;28;20189;-26
2023/06/17 03:55:19;;;;;;;4.35;3.50;;;;;;;23.76;46.61;96302.44;5033462;28;20071;-26
2023/06/17 03:57:45;;;;;;;4.95;3.40;;;;;;;23.72;46.48;96297.19;5040590;28;20079;-27
2023/06/17 04:00:11;;;;;;;4.82;3.75;;;;;;;23.63;46.66;96289.97;5033783;28;20025;-27
2023/06/17 04:02:36;;;;;;;5.65;3.28;;;;;;;23.90;45.42;96285.44;5033243;28;20021;-28
2023/06/17 04:05:02;;;;;;;6.55;3.50;;;;;;;24.03;44.90;96287.56;5033442;28;20032;-28
2023/06/17 04:07:28;;;;;;;6.05;3.40;;;;;;;24.00;44.73;96283.81;5033252;28;20107;-27
2023/06/17 04:09:54;;;;;;;4.47;3.60;;;;;;;24.02;44.72;96288.09;5040435;28;20037;-27
2023/06/17 04:12:19;;;;;;;5.47;3.33;;;;;;;23.95;44.05;96279.09;5033394;28;20036;-26
2023/06/17 04:14:45;;;;;;;6.90;3.40;;;;;;;23.98;43.52;96280.81;5033023;28;20112;-27
2023/06/17 04:17:10;;;;;;;4.35;3.10;;;;;;;23.87;43.84;96285.72;5033413;28;20071;-26
2023/06/17 04:19:37;;;;;;;5.32;3.60;;;;;;;24.04;42.96;96278.00;5033131;28;20029;-27
2023/06/17 04:22:05;;;;;;;4.53;3.40;;;;;;;23.92;42.66;96285.66;5033252;28;20025;-27
2023/06/17 04:24:31;;;;;;;5.38;3.47;;;;;;;23.90;42.54;96281.91;5033163;28;20026;-26
2023/06/17 04:26:56;;;;;;;5.13;3.55;;;;;;;23.97;42.20;96284.13;5033499;28;20026;-27
2023/06/17 04:29:22;;;;;;;3.70;2.90;;;;;;;24.11;41.10;96282.94;5033892;28;20045;-27
2023/06/17 04:31:47;;;;;;;6.28;3.50;;;;;;;24.12;41.22;96278.16;5033082;28;20037;-26
2023/06/17 04:34:21;;;;;;;4.60;3.35;;;;;;;23.88;41.21;96281.69;5033461;28;20029;-27
2023/06/17 04:36:56;;;;;;;7.88;3.17;;;;;;;24.00;40.89;96275.50;5034391;28;20097;-27
2023/06/17 04:39:22;;;;;;;4.60;3.25;;;;;;;24.06;40.59;96286.53;5036854;28;20042;-27
2023/06/17 04:41:48;;;;;;;4.47;3.00;;;;;;;23.96;40.52;96282.63;5045186;28;20383;-27
2023/06/17 04:44:14;;;;;;;5.10;2.78;;;;;;;23.98;40.41;96286.34;5036639;28;20025;-26
2023/06/17 04:46:39;;;;;;;4.78;2.78;;;;;;;23.99;40.37;96285.09;5037494;28;20088;-27
2023/06/17 04:49:05;;;;;;;4.55;3.15;;;;;;;24.10;40.93;96291.81;5036515;28;20029;-26
2023/06/17 04:51:30;;;;;;;5.72;3.55;;;;;;;24.03;40.52;96293.13;5049980;28;20017;-27
2023/06/17 04:53:56;;;;;;;5.00;3.30;;;;;;;23.98;40.67;96300.19;5036654;28;20021;-27
2023/06/17 04:56:26;;;;;;;4.82;3.10;;;;;;;24.00;41.09;96288.59;5036759;28;20028;-27
2023/06/17 04:58:52;;;;;;;4.18;2.85;;;;;;;23.89;41.10;96295.00;5037053;28;20484;-28
2023/06/17 05:01:17;;;;;;;4.22;3.22;;;;;;;23.84;40.78;96304.13;5036857;28;20029;-27
2023/06/17 05:03:43;;;;;;;3.65;3.03;;;;;;;24.04;40.62;96307.72;5036298;28;20018;-27
2023/06/17 05:06:08;;;;;;;3.65;3.08;;;;;;;24.14;40.36;96306.09;5036700;28;20104;-27
2023/06/17 05:08:33;;;;;;;4.65;3.15;;;;;;;23.92;41.34;96305.06;5043695;28;20032;-28
2023/06/17 05:10:59;;;;;;;4.90;3.60;;;;;;;23.83;41.33;96304.66;5036496;28;20028;-27
2023/06/17 05:13:24;;;;;;;3.80;2.97;;;;;;;24.03;41.16;96306.22;5036309;28;20029;-27
2023/06/17 05:15:50;;;;;;;3.63;3.00;;;;;;;24.03;41.31;96303.44;5043601;28;20025;-27
2023/06/17 05:18:15;;;;;;;3.45;2.70;;;;;;;23.97;41.51;96306.28;5036593;28;20025;-27
2023/06/17 05:20:40;;;;;;;4.70;3.28;;;;;;;23.94;41.30;96297.00;5042712;28;20021;-27
2023/06/17 05:23:06;;;;;;;5.47;3.10;;;;;;;23.93;42.18;96305.81;5037660;28;20105;-27
2023/06/17 05:25:32;;;;;;;3.47;3.08;;;;;;;24.09;41.56;96295.84;5035951;28;20040;-27
2023/06/17 05:27:57;;;;;;;6.00;3.13;;;;;;;24.05;41.83;96314.75;5042948;28;20040;-26
2023/06/17 05:30:22;;;;;;;3.40;2.90;;;;;;;24.07;41.69;96315.00;5036617;28;20086;-27
2023/06/17 05:32:49;;;;;;;4.70;2.70;;;;;;;24.12;41.46;96317.69;5035728;28;20105;-27
2023/06/17 05:35:14;;;;;;;4.45;2.90;;;;;;;24.07;42.08;96320.53;5036164;28;20029;-27
2023/06/17 05:37:40;;;;;;;4.35;2.95;;;;;;;23.90;42.77;96320.69;5035826;28;20485;-27
2023/06/17 05:40:06;;;;;;;5.82;3.38;;;;;;;24.00;42.42;96322.59;5035754;28;20049;-29
2023/06/17 05:42:31;;;;;;;4.10;2.67;;;;;;;24.05;42.06;96318.28;5035611;28;20021;-27
2023/06/17 05:44:56;;;;;;;4.68;2.70;;;;;;;24.24;41.74;96326.66;5036222;28;20021;-27
2023/06/17 05:47:22;;;;;;;3.85;2.92;;;;;;;24.03;41.87;96329.13;5036065;28;20028;-27
2023/06/17 05:49:47;;;;;;;5.38;2.70;;;;;;;24.02;42.52;96327.63;5034769;28;20087;-27
2023/06/17 05:52:13;;;;;;;4.57;3.10;;;;;;;23.98;42.30;96330.66;5035675;28;20112;-26
2023/06/17 05:54:39;;;;;;;4.03;2.80;;;;;;;24.08;41.96;96320.03;5035615;28;20048;-27
2023/06/17 05:57:04;;;;;;;3.03;2.72;;;;;;;24.13;42.09;96319.19;5035641;28;20025;-27
2023/06/17 05:59:30;;;;;;;3.63;2.65;;;;;;;24.02;42.53;96329.66;5035363;28;20021;-25
2023/06/17 06:01:55;;;;;;;5.20;3.13;;;;;;;24.00;42.17;96327.38;5035862;28;20018;-27
2023/06/17 06:04:21;;;;;;;3.00;2.60;;;;;;;24.17;42.51;96330.00;5035936;28;20021;-27
2023/06/17 06:06:46;;;;;;;5.43;2.88;;;;;;;24.20;42.08;96337.28;5035406;28;20029;-27
2023/06/17 06:09:11;;;;;;;4.05;2.63;;;;;;;24.26;42.10;96335.22;5035229;28;20466;-27
2023/06/17 06:11:37;;;;;;;3.03;2.35;;;;;;;24.21;42.13;96341.56;5035010;28;20032;-27
2023/06/17 06:14:03;;;;;;;3.35;2.63;;;;;;;24.16;42.12;96343.09;5035041;28;20120;-27
2023/06/17 06:16:29;;;;;;;3.20;2.90;;;;;;;24.18;42.75;96340.56;5035359;28;20112;-29
2023/06/17 06:18:54;;;;;;;3.90;2.58;;;;;;;24.28;43.08;96343.78;5034803;28;20096;-27
2023/06/17 06:21:20;;;;;;;3.35;2.90;;;;;;;24.20;42.64;96343.56;5042389;28;20097;-27
2023/06/17 06:23:45;;;;;;;4.07;2.78;;;;;;;24.09;42.23;96349.22;5035121;28;20025;-27
2023/06/17 06:26:11;;;;;;;4.20;2.95;;;;;;;24.10;42.70;96350.75;5035357;28;20021;-27
2023/06/17 06:28:36;;;;;;;4.07;2.88;;;;;;;24.29;42.90;96345.28;5035519;28;20044;-27
2023/06/17 06:31:03;;;;;;;4.40;2.60;;;;;;;24.26;42.97;96354.63;5034616;28;20430;-27
2023/06/17 06:33:28;;;;;;;3.22;2.53;;;;;;;24.21;42.69;96355.41;5042209;28;20029;-27
2023/06/17 06:35:54;;;;;;;3.47;2.72;;;;;;;24.29;42.78;96359.88;5045942;28;20483;-27
2023/06/17 06:38:19;;;;;;;4.82;4.25;;;;;;;24.27;43.04;96367.97;5034733;28;20017;-27
2023/06/17 06:40:44;;;;;;;5.82;3.50;;;;;;;24.38;42.56;96367.09;5034366;28;20080;-27
2023/06/17 06:43:10;;;;;;;3.42;3.13;;;;;;;24.18;42.54;96367.53;5038983;28;20016;-27
2023/06/17 06:45:35;;;;;;;4.60;3.05;;;;;;;24.25;41.84;96366.97;5034990;28;20117;-27
2023/06/17 06:48:01;;;;;;;4.18;3.05;;;;;;;24.25;42.66;96376.03;5034442;28;20020;-27
2023/06/17 06:50:26;;;;;;;4.38;3.25;;;;;;;24.28;42.86;96371.47;5035020;28;20053;-27
2023/06/17 06:52:52;;;;;;;2.95;2.65;;;;;;;24.37;42.51;96367.59;5034693;28;20024;-27
2023/06/17 06:55:17;;;;;;;5.32;2.92;;;;;;;24.38;41.68;96378.19;5034320;28;20057;-27
2023/06/17 06:57:43;;;;;;;4.38;2.95;;;;;;;24.27;42.92;96381.06;5034447;28;20032;-27
2023/06/17 07:00:09;;;;;;;4.72;2.70;;;;;;;24.41;42.72;96377.16;5033991;28;20021;-27
2023/06/17 07:02:35;;;;;;;3.83;2.90;;;;;;;24.50;42.81;96376.78;5039110;28;20022;-27
2023/06/17 07:05:03;;;;;;;3.55;2.97;;;;;;;24.48;43.20;96381.38;5034385;28;20028;-27
2023/06/17 07:07:29;;;;;;;5.18;2.83;;;;;;;24.45;43.19;96383.16;5034259;28;20104;-28
2023/06/17 07:09:56;;;;;;;2.92;2.60;;;;;;;24.42;42.90;96383.44;5032881;28;20116;-28
2023/06/17 07:12:21;;;;;;;4.60;3.30;;;;;;;24.46;43.21;96381.91;5034080;28;20018;-27
2023/06/17 07:14:46;;;;;;;7.15;2.78;;;;;;;24.47;42.95;96382.66;5034040;28;20033;-27
2023/06/17 07:17:13;;;;;;;4.63;2.60;;;;;;;24.47;43.41;96383.41;5033735;28;20104;-28
2023/06/17 07:19:39;;;;;;;4.65;2.80;;;;;;;24.49;42.86;96391.91;5034177;28;20063;-27
2023/06/17 07:22:05;;;;;;;4.07;2.80;;;;;;;24.50;42.63;96390.66;5034579;28;20045;-26
2023/06/17 07:24:30;;;;;;;5.15;3.20;;;;;;;24.60;43.03;96391.06;5037524;28;20021;-27
2023/06/17 07:26:55;;;;;;;4.30;2.72;;;;;;;24.51;42.61;96386.63;5045662;28;20028;-27
2023/06/17 07:29:21;;;;;;;4.07;2.60;;;;;;;24.63;42.94;96388.00;5040365;28;20070;-27
2023/06/17 07:31:46;;;;;;;4.03;2.70;;;;;;;24.61;42.59;96401.63;5033555;28;20080;-27
2023/06/17 07:34:11;;;;;;;3.80;2.58;;;;;;;24.64;42.86;96392.28;5033914;28;20360;-27
2023/06/17 07:36:37;;;;;;;3.55;2.30;;;;;;;24.65;42.50;96385.44;5033807;28;20025;-28
2023/06/17 07:39:03;;;;;;;3.88;2.83;;;;;;;24.55;42.36;96395.41;5033574;28;20029;-27
2023/06/17 07:41:28;;;;;;;4.18;2.50;;;;;;;24.44;42.12;96389.22;5033874;28;20030;-28
2023/06/17 07:43:54;;;;;;;4.95;2.72;;;;;;;24.66;41.46;96386.94;5033345;28;20048;-27
2023/06/17 07:46:19;;;;;;;2.50;2.30;;;;;;;24.75;41.24;96398.97;5033671;28;20463;-26
2023/06/17 07:48:44;;;;;;;3.10;2.58;;;;;;;24.55;41.45;96395.41;5033304;28;20017;-26
2023/06/17 07:51:10;;;;;;;3.60;2.65;;;;;;;24.59;41.46;96395.88;5033944;28;20021;-28
2023/06/17 07:53:36;;;;;;;4.32;2.80;;;;;;;24.60;41.31;96391.78;5033602;28;20118;-27
2023/06/17 07:56:01;;;;;;;4.47;2.80;;;;;;;24.68;42.08;96395.50;5033665;28;20029;-27
2023/06/17 07:58:27;;;;;;;4.68;2.78;;;;;;;24.84;41.04;96398.63;5033416;28;20033;-27
2023/06/17 08:00:52;;;;;;;3.45;2.58;;;;;;;24.86;40.94;96401.59;5033551;28;20066;-27
2023/06/17 08:03:18;;;;;;;3.88;2.60;;;;;;;24.76;41.19;96397.69;5033665;28;20033;-26
2023/06/17 08:05:43;;;;;;;4.78;3.38;;;;;;;24.67;41.08;96394.00;5033277;28;20525;-27
2023/06/17 08:08:08;;;;;;;5.47;3.28;;;;;;;24.79;40.48;96393.88;5033426;28;20017;-28
2023/06/17 08:10:34;;;;;;;6.18;3.22;;;;;;;24.76;40.72;96395.66;5033808;28;20024;-27
2023/06/17 08:13:00;;;;;;;4.35;3.22;;;;;;;24.64;41.58;96386.72;5036591;28;20076;-26
2023/06/17 08:15:27;;;;;;;4.97;3.08;;;;;;;24.87;40.70;96386.47;5037647;28;20375;-26
2023/06/17 08:17:52;;;;;;;6.10;3.35;;;;;;;24.75;40.17;96396.19;5050643;28;20021;-27
2023/06/17 08:20:20;;;;;;;6.25;3.45;;;;;;;24.65;39.86;96396.53;5037225;28;20033;-27
2023/06/17 08:22:45;;;;;;;5.80;3.47;;;;;;;24.63;40.47;96392.78;5037172;28;20070;-27
2023/06/17 08:25:10;;;;;;;4.97;3.05;;;;;;;24.76;40.02;96395.66;5037569;28;20022;-27
2023/06/17 08:27:37;;;;;;;6.90;3.70;;;;;;;24.68;39.84;96395.50;5037408;28;20025;-27
2023/06/17 08:30:03;;;;;;;7.00;3.67;;;;;;;24.64;39.67;96395.03;5037175;28;20025;-27
2023/06/17 08:32:29;;;;;;;5.75;3.25;;;;;;;24.78;39.61;96395.91;5044407;28;20032;-27
2023/06/17 08:34:54;;;;;;;4.93;3.03;;;;;;;24.71;40.20;96404.81;5042289;28;20021;-27
2023/06/17 08:37:20;;;;;;;4.28;2.83;;;;;;;24.65;39.96;96412.44;5037000;28;20096;-28
2023/06/17 08:39:45;;;;;;;4.78;3.22;;;;;;;24.82;39.49;96412.25;5040535;28;20493;-27
2023/06/17 08:42:11;;;;;;;4.25;3.40;;;;;;;24.67;39.48;96409.88;5040111;28;20128;-27
2023/06/17 08:44:41;;;;;;;8.07;3.40;;;;;;;24.68;40.03;96412.16;5036981;28;20025;-27
2023/06/17 08:47:07;;;;;;;4.55;3.17;;;;;;;24.77;39.60;96413.81;5036763;28;20459;-27
2023/06/17 08:49:33;;;;;;;5.70;3.60;;;;;;;24.75;39.05;96410.81;5037059;28;20032;-27
2023/06/17 08:52:00;;;;;;;4.70;3.75;;;;;;;24.77;39.62;96413.81;5036568;28;20029;-27
2023/06/17 08:54:33;;;;;;;4.00;3.17;;;;;;;24.63;39.68;96421.25;5036504;28;20025;-27
2023/06/17 08:56:59;;;;;;;5.57;3.63;;;;;;;24.73;39.74;96418.16;5043733;28;20351;-27
2023/06/17 08:59:24;;;;;;;4.95;3.75;;;;;;;24.70;39.69;96422.72;5047150;28;20083;-28
2023/06/17 09:01:51;;;;;;;4.57;3.45;;;;;;;24.75;39.69;96410.03;5040559;28;20010;-27
2023/06/17 09:04:20;;;;;;;4.07;3.42;;;;;;;24.82;39.29;96415.03;5036453;28;20502;-27
2023/06/17 09:06:45;;;;;;;5.57;3.53;;;;;;;24.73;39.54;96424.44;5036525;28;20443;-27
2023/06/17 09:09:11;;;;;;;8.65;4.63;;;;;;;24.71;38.92;96424.22;5036243;28;20052;-27
2023/06/17 09:11:37;;;;;;;6.32;3.50;;;;;;;24.74;39.04;96419.63;5036506;28;20025;-27
2023/06/17 09:14:03;;;;;;;4.55;3.38;;;;;;;24.86;38.19;96416.22;5036706;28;20489;-27
2023/06/17 09:16:34;;;;;;;6.15;3.35;;;;;;;24.93;38.41;96424.00;5037401;28;20104;-27
2023/06/17 09:19:09;;;;;;;4.40;3.22;;;;;;;24.85;38.29;96420.25;5045549;28;20047;-26
2023/06/17 09:21:36;;;;;;;14.75;5.00;;;;;;;24.84;38.22;96421.56;5036279;28;20498;-27
2023/06/17 09:24:04;;;;;;;8.90;3.75;;;;;;;24.86;37.46;96424.53;5036147;28;20550;-27
2023/06/17 09:26:32;;;;;;;7.97;3.97;;;;;;;24.84;37.83;96426.34;5036165;28;20022;-26
2023/06/17 09:29:06;;;;;;;6.53;3.55;;;;;;;24.82;37.03;96435.19;5036650;28;20475;-27
2023/06/17 09:31:35;;;;;;;7.65;3.25;;;;;;;24.74;37.97;96433.50;5036443;28;20026;-27
2023/06/17 09:34:04;;;;;;;6.75;3.60;;;;;;;24.83;37.85;96439.47;5036047;28;20063;-26
2023/06/17 09:36:29;;;;;;;5.90;3.50;;;;;;;24.87;38.53;96428.06;5035636;28;20017;-27
2023/06/17 09:38:55;;;;;;;5.40;3.45;;;;;;;24.99;37.02;96435.00;5035799;28;20360;-27
2023/06/17 09:41:20;;;;;;;5.28;3.47;;;;;;;24.83;36.96;96435.94;5036002;28;20455;-27
2023/06/17 09:43:51;;;;;;;4.55;3.60;;;;;;;24.93;36.65;96437.13;5035850;28;20063;-26
2023/06/17 09:46:35;;;;;;;6.15;3.20;;;;;;;24.90;36.21;96432.56;5035905;28;20018;-27
2023/06/17 09:49:07;;;;;;;4.97;3.40;;;;;;;24.86;35.56;96427.31;5042902;28;20041;-27
2023/06/17 09:51:37;;;;;;;4.55;3.10;;;;;;;24.92;35.52;96424.50;5035500;28;20051;-27
2023/06/17 09:54:04;;;;;;;3.83;3.22;;;;;;;24.96;36.33;96430.53;5035830;28;20544;-27
2023/06/17 09:56:34;;;;;;;4.95;3.35;;;;;;;25.04;35.22;96426.63;5035761;28;20450;-26
2023/06/17 09:59:00;;;;;;;5.88;2.92;;;;;;;24.89;35.65;96425.53;5035434;28;20413;-27
2023/06/17 10:01:30;;;;;;;4.43;3.08;;;;;;;24.87;36.07;96414.94;5042244;28;20032;-27
2023/06/17 10:04:01;;;;;;;9.82;3.28;;;;;;;24.97;35.83;96420.94;5037499;28;20056;-27
2023/06/17 10:06:30;;;;;;;4.18;3.45;;;;;;;24.97;35.42;96426.47;5040073;28;20029;-27
2023/06/17 10:08:57;;;;;;;3.78;3.10;;;;;;;24.94;35.63;96424.75;5036111;28;20379;-26
2023/06/17 10:11:24;;;;;;;5.28;3.55;;;;;;;25.01;35.46;96424.16;5035275;28;20021;-28
2023/06/17 10:14:03;;;;;;;4.35;2.83;;;;;;;25.04;35.66;96420.34;5035362;28;20467;-27
2023/06/17 10:16:31;;;;;;;4.82;3.05;;;;;;;25.00;35.85;96419.88;5035206;28;20034;-27
2023/06/17 10:19:03;;;;;;;5.13;3.20;;;;;;;24.97;36.14;96423.72;5035430;28;20025;-26
2023/06/17 10:21:29;;;;;;;3.25;2.80;;;;;;;25.07;36.34;96424.84;5035517;28;20471;-27
2023/06/17 10:23:57;;;;;;;4.70;2.97;;;;;;;25.11;36.80;96430.06;5034809;28;20100;-27
2023/06/17 10:26:23;;;;;;;5.00;2.95;;;;;;;25.11;36.23;96425.28;5042099;28;20036;-26
2023/06/17 10:29:01;;;;;;;5.05;3.47;;;;;;;25.05;36.95;96427.38;5034812;28;20025;-26
2023/06/17 10:31:31;;;;;;;3.65;3.08;;;;;;;25.07;37.35;96427.63;5035801;28;20029;-27
2023/06/17 10:34:01;;;;;;;4.75;2.72;;;;;;;25.09;37.95;96432.66;5038648;28;20028;-27
2023/06/17 10:36:27;;;;;;;4.68;3.28;;;;;;;25.06;38.32;96426.13;5035139;28;20063;-26
2023/06/17 10:38:55;;;;;;;4.78;2.90;;;;;;;25.18;38.05;96429.50;5034355;28;20045;-26
2023/06/17 10:41:21;;;;;;;4.85;3.30;;;;;;;25.11;37.03;96430.84;5034895;28;20026;-27
2023/06/17 10:43:49;;;;;;;4.40;3.50;;;;;;;25.11;37.01;96425.28;5034623;28;20044;-27
2023/06/17 10:46:23;;;;;;;4.63;2.97;;;;;;;25.16;37.41;96432.78;5034449;28;20017;-27
2023/06/17 10:48:49;;;;;;;6.45;3.58;;;;;;;25.15;38.02;96431.28;5041989;28;20102;-27
2023/06/17 10:51:15;;;;;;;4.05;3.20;;;;;;;25.16;38.36;96427.25;5035038;28;20041;-27
2023/06/17 10:53:47;;;;;;;5.88;3.30;;;;;;;25.16;38.40;96427.25;5034549;28;20076;-27
2023/06/17 10:56:12;;;;;;;4.47;3.15;;;;;;;25.20;38.18;96426.97;5042597;28;20076;-27
2023/06/17 10:58:47;;;;;;;4.50;3.00;;;;;;;25.17;38.31;96433.53;5034266;28;20056;-26
2023/06/17 11:01:13;;;;;;;4.75;3.33;;;;;;;25.16;38.99;96426.50;5034554;28;20047;-27
2023/06/17 11:03:39;;;;;;;4.13;3.55;;;;;;;25.21;38.16;96428.47;5041518;28;20079;-27
2023/06/17 11:06:09;;;;;;;4.22;3.63;;;;;;;25.27;38.82;96418.03;5034457;28;20025;-27
2023/06/17 11:08:43;;;;;;;6.18;3.50;;;;;;;25.26;38.63;96422.81;5050995;28;20039;-27
2023/06/17 11:11:16;;;;;;;5.50;3.13;;;;;;;25.24;38.66;96419.06;5041011;28;20053;-27
2023/06/17 11:13:44;;;;;;;4.05;2.97;;;;;;;25.24;38.43;96416.28;5033826;28;20030;-26
2023/06/17 11:16:10;;;;;;;7.32;3.40;;;;;;;25.32;38.91;96417.22;5034006;28;20032;-27
2023/06/17 11:18:37;;;;;;;4.13;3.13;;;;;;;25.30;38.72;96416.97;5034267;28;20032;-26
2023/06/17 11:21:06;;;;;;;3.60;2.92;;;;;;;25.26;38.91;96406.16;5040994;28;20025;-27
2023/06/17 11:23:33;;;;;;;5.18;3.65;;;;;;;25.31;38.70;96416.47;5034321;28;20086;-27
2023/06/17 11:26:00;;;;;;;5.68;3.70;;;;;;;25.37;38.46;96405.25;5034010;28;20025;-27
2023/06/17 11:28:26;;;;;;;9.55;3.35;;;;;;;25.33;38.80;96407.59;5041246;28;20501;-26
2023/06/17 11:30:53;;;;;;;6.28;3.30;;;;;;;25.33;38.47;96416.69;5033796;28;20029;-27